METAR Data
IDs: Format: Raw Decoded Include TAF

Data at: 2139 UTC 22 Sep 2020

KOCQ 222135Z AUTO 17006KT 10SM CLR 24/15 A3002 RMK AO1 T02440154
KOCQ 222115Z AUTO 17007KT 10SM CLR 25/16 A3003 RMK AO1 T02450156
KOCQ 222055Z AUTO 18007KT 10SM CLR 25/16 A3004 RMK AO1 T02460157
KOCQ 222035Z AUTO 16006KT 10SM CLR 25/16 A3004 RMK AO1 T02460157
KOCQ 222015Z AUTO 15007KT 10SM CLR 25/16 A3004 RMK AO1 T02460156
KOCQ 221955Z AUTO 16005KT 10SM CLR 25/16 A3005 RMK AO1 T02460158
KOCQ 221935Z AUTO 17006KT 10SM CLR 24/15 A3006 RMK AO1 T02370152
KOCQ 221915Z AUTO 17007KT 10SM CLR 24/15 A3006 RMK AO1 T02380154
KOCQ 221855Z AUTO 16008KT 10SM CLR 25/16 A3007 RMK AO1 T02480158
KOCQ 221835Z AUTO 14007KT 10SM CLR 24/16 A3007 RMK AO1 T02420155
KOCQ 221815Z AUTO 14006KT 10SM CLR 25/16 A3008 RMK AO1 T02470156
KOCQ 221755Z AUTO 00000KT 10SM CLR 25/15 A3009 RMK AO1 T02450148 10247 20114
KOCQ 221735Z AUTO 29003KT 10SM CLR 24/15 A3009 RMK AO1 T02360145
KOCQ 221715Z AUTO 25005KT 10SM CLR 23/14 A3010 RMK AO1 T02300144
KOCQ 221655Z AUTO 27004KT 10SM CLR 22/14 A3010 RMK AO1 T02230142
KOCQ 221635Z AUTO 25004KT 10SM CLR 22/14 A3011 RMK AO1 T02170139
KOCQ 221615Z AUTO 26005KT 10SM CLR 21/14 A3011 RMK AO1 T02110136
KOCQ 221555Z AUTO 27005KT 10SM CLR 20/13 A3012 RMK AO1 T02040133
KOCQ 221535Z AUTO 25006KT 10SM CLR 20/13 A3012 RMK AO1 T02000130
KOCQ 221515Z AUTO 29006KT 10SM CLR 19/13 A3013 RMK AO1 T01940127
KOCQ 221455Z AUTO 27006KT 10SM CLR 19/12 A3013 RMK AO1 T01870124
KOCQ 221435Z AUTO 27007KT 10SM CLR 18/12 A3013 RMK AO1 T01780119
KOCQ 221415Z AUTO 28005KT 10SM CLR 17/12 A3013 RMK AO1 T01700118
KOCQ 221355Z AUTO 27005KT 10SM CLR 16/12 A3013 RMK AO1 T01590115
KOCQ 221335Z AUTO 27003KT 10SM CLR 15/11 A3013 RMK AO1 T01490114
KOCQ 221315Z AUTO 26004KT 10SM CLR 14/11 A3014 RMK AO1 T01430110
KOCQ 221255Z AUTO 24004KT 10SM CLR 14/11 A3014 RMK AO1 T01400110
KOCQ 221235Z AUTO 24004KT 10SM CLR 13/11 A3014 RMK AO1 T01310109
KOCQ 221215Z AUTO 00000KT 10SM CLR 12/10 A3013 RMK AO1 T01170101
KOCQ 221155Z AUTO 24003KT 10SM CLR 11/10 A3013 RMK AO1 T01140099 10155 20114
KOCQ 221135Z AUTO 00000KT 10SM CLR 12/10 A3013 RMK AO1 T01240100
KOCQ 221115Z AUTO 25003KT 10SM CLR 13/10 A3013 RMK AO1 T01280100
KOCQ 221055Z AUTO 23003KT 10SM CLR 13/10 A3013 RMK AO1 T01340100
KOCQ 221035Z AUTO 24003KT 10SM CLR 14/10 A3013 RMK AO1 T01360100
KOCQ 221015Z AUTO 23004KT 10SM CLR 14/10 A3013 RMK AO1 T01400100
KOCQ 220955Z AUTO 22004KT 10SM CLR 14/10 A3013 RMK AO1 T01440100
KOCQ 220935Z AUTO 22004KT 10SM CLR 14/10 A3013 RMK AO1 T01420100
KOCQ 220915Z AUTO 22004KT 10SM CLR 14/10 A3013 RMK AO1 T01430100
KOCQ 220855Z AUTO 22005KT 10SM CLR 15/10 A3014 RMK AO1 T01470100
KOCQ 220835Z AUTO 22005KT 10SM CLR 15/10 A3014 RMK AO1 T01460101
KOCQ 220815Z AUTO 22004KT 10SM CLR 15/10 A3015 RMK AO1 T01460101
KOCQ 220755Z AUTO 22006KT 10SM CLR 15/10 A3015 RMK AO1 T01500101
KOCQ 220735Z AUTO 21006KT 10SM CLR 15/10 A3016 RMK AO1 T01500102
KOCQ 220715Z AUTO 21004KT 10SM CLR 15/10 A3016 RMK AO1 T01530102
KOCQ 220655Z AUTO 20007KT 10SM CLR 16/10 A3017 RMK AO1 T01550102
KOCQ 220635Z AUTO 20007KT 10SM CLR 16/10 A3017 RMK AO1 T01550103
KOCQ 220615Z AUTO 20005KT 10SM CLR 16/11 A3017 RMK AO1 T01550105
KOCQ 220555Z AUTO 20006KT 10SM CLR 15/11 A3017 RMK AO1 T01500108 10170 20147 402190130
KOCQ 220535Z AUTO 20004KT 10SM CLR 15/11 A3017 RMK AO1 T01480110
KOCQ 220515Z AUTO 20005KT 10SM CLR 15/11 A3017 RMK AO1 T01500108
KOCQ 220455Z AUTO 20005KT 10SM CLR 15/11 A3018 RMK AO1 T01510109
KOCQ 220435Z AUTO 20005KT 10SM CLR 15/11 A3018 RMK AO1 T01510109
KOCQ 220415Z AUTO 21005KT 10SM CLR 16/11 A3019 RMK AO1 T01550107
KOCQ 220355Z AUTO 21005KT 10SM SCT110 16/11 A3019 RMK AO1 T01580110
KOCQ 220335Z AUTO 20007KT 10SM OVC110 16/11 A3017 RMK AO1 T01600112
KOCQ 220315Z AUTO 19008KT 10SM SCT065 SCT080 BKN120 16/11 A3017 RMK AO1 T01570113
KOCQ 220255Z AUTO 20008G14KT 10SM SCT075 SCT090 BKN110 16/11 A3016 RMK AO1 T01590112
KOCQ 220235Z AUTO 18008G16KT 10SM SCT110 16/11 A3016 RMK AO1 T01580112
KOCQ 220215Z AUTO 19008G14KT 10SM CLR 16/11 A3017 RMK AO1 T01590112
KOCQ 220155Z AUTO 19010KT 10SM CLR 16/12 A3018 RMK AO1 T01570115
KOCQ 220135Z AUTO 18008KT 10SM CLR 16/12 A3019 RMK AO1 T01580115
KOCQ 220115Z AUTO 18007KT 10SM CLR 16/11 A3019 RMK AO1 T01600113
KOCQ 220055Z AUTO 17009KT 10SM CLR 16/12 A3019 RMK AO1 T01610115
KOCQ 220035Z AUTO 16008KT 10SM CLR 16/12 A3019 RMK AO1 T01600116
KOCQ 220015Z AUTO 17005KT 10SM CLR 17/12 A3020 RMK AO1 T01650115
KOCQ 212355Z AUTO 18006KT 10SM CLR 17/11 A3020 RMK AO1 T01700112 10219 20170
KOCQ 212335Z AUTO 18007KT 10SM CLR 17/12 A3019 RMK AO1 T01710115
KOCQ 212315Z AUTO 16006KT 10SM CLR 18/12 A3019 RMK AO1 T01760117
KOCQ 212255Z AUTO 16007KT 10SM CLR 18/12 A3018 RMK AO1 T01810117
KOCQ 212235Z AUTO 17009KT 10SM CLR 19/11 A3018 RMK AO1 T01910112
KOCQ 212215Z AUTO 15006KT 10SM CLR 20/08 A3018 RMK AO1 T02030080
KOCQ 212155Z AUTO 20006KT 10SM CLR 21/07 A3019 RMK AO1 T02140074
KOCQ 212135Z AUTO 20012G16KT 10SM CLR 22/07 A3019 RMK AO1 T02170071
KOCQ 212115Z AUTO 19010G14KT 10SM CLR 22/08 A3019 RMK AO1 T02170075
KOCQ 212055Z AUTO 19012G17KT 10SM CLR 22/07 A3020 RMK AO1 T02180073
KOCQ 212035Z AUTO 20012KT 10SM CLR 22/07 A3020 RMK AO1 T02160070
KOCQ 212015Z AUTO 20011G19KT 160V220 10SM CLR 21/07 A3021 RMK AO1 T02140071
KOCQ 211955Z AUTO 19010G14KT 10SM CLR 21/08 A3021 RMK AO1 T02120078
KOCQ 211935Z AUTO 18010G14KT 10SM CLR 22/08 A3022 RMK AO1 T02150082
KOCQ 211915Z AUTO 17008KT 10SM CLR 21/08 A3023 RMK AO1 T02100082
KOCQ 211855Z AUTO 19010G14KT 10SM CLR 21/08 A3025 RMK AO1 T02130080
KOCQ 211835Z AUTO 17010G16KT 10SM CLR 21/08 A3025 RMK AO1 T02120080
KOCQ 211815Z AUTO 19009G14KT 10SM CLR 22/07 A3026 RMK AO1 T02150068
KOCQ 211755Z AUTO 20009KT 10SM CLR 21/07 A3028 RMK AO1 T02140074 10215 20130
KOCQ 211735Z AUTO 21010KT 10SM CLR 21/07 A3029 RMK AO1 T02080068
KOCQ 211715Z AUTO 17006KT 10SM CLR 20/09 A3029 RMK AO1 T01960089
KOCQ 211655Z AUTO 20009KT 10SM CLR 20/07 A3030 RMK AO1 T01950067
KOCQ 211635Z AUTO 23009KT 10SM CLR 19/06 A3031 RMK AO1 T01920063
KOCQ 211615Z AUTO 21009G15KT 10SM CLR 19/06 A3031 RMK AO1 T01920064
KOCQ 211555Z AUTO 20008G16KT 10SM CLR 19/07 A3032 RMK AO1 T01860067
KOCQ 211535Z AUTO 20012G15KT 10SM CLR 18/07 A3033 RMK AO1 T01820069
KOCQ 211515Z AUTO 21009KT 10SM CLR 18/07 A3033 RMK AO1 T01750073
KOCQ 211455Z AUTO 18007KT 10SM CLR 17/08 A3033 RMK AO1 T01720083
KOCQ 211435Z AUTO 19009KT 10SM CLR 16/09 A3033 RMK AO1 T01620087
KOCQ 211415Z AUTO 18007KT 10SM CLR 15/09 A3033 RMK AO1 T01500090
KOCQ 211355Z AUTO 18007KT 10SM CLR 15/10 A3033 RMK AO1 T01540099
KOCQ 211335Z AUTO 19008KT 10SM CLR 16/10 A3033 RMK AO1 T01550104
KOCQ 211315Z AUTO 19006KT 10SM CLR 15/11 A3033 RMK AO1 T01460106
KOCQ 211255Z AUTO 19005KT 10SM CLR 14/11 A3034 RMK AO1 T01380112
KOCQ 211235Z AUTO 00000KT 10SM CLR 13/11 A3034 RMK AO1 T01310114
KOCQ 211215Z AUTO 00000KT 10SM CLR 14/11 A3034 RMK AO1 T01350113
KOCQ 211155Z AUTO 19006KT 10SM CLR 14/11 A3034 RMK AO1 T01360113 10142 20133
KOCQ 211135Z AUTO 19005KT 10SM CLR 14/12 A3033 RMK AO1 T01350118
KOCQ 211115Z AUTO 18004KT 10SM CLR 14/12 A3032 RMK AO1 T01360123
KOCQ 211055Z AUTO 18005KT 10SM CLR 14/13 A3032 RMK AO1 T01370125
KOCQ 211035Z AUTO 18007KT 10SM CLR 14/13 A3032 RMK AO1 T01400126
KOCQ 211015Z AUTO 18006KT 10SM CLR 14/13 A3032 RMK AO1 T01400125
KOCQ 210955Z AUTO 18007KT 10SM CLR 14/12 A3032 RMK AO1 T01410123